createdAt,value
2017-11-25T00:01:37.484Z,6.00
2017-11-25T00:04:05.751Z,6.00
2017-11-25T00:06:34.073Z,6.00
2017-11-25T00:09:02.352Z,5.90
2017-11-25T00:11:30.898Z,5.80
2017-11-25T00:13:59.919Z,5.90
2017-11-25T00:16:28.177Z,5.90
2017-11-25T00:18:56.516Z,5.90
2017-11-25T00:21:24.982Z,5.90
2017-11-25T00:23:53.401Z,5.90
2017-11-25T00:26:22.596Z,6.00
2017-11-25T00:28:50.875Z,6.00
2017-11-25T00:31:20.066Z,6.00
2017-11-25T00:33:49.094Z,6.10
2017-11-25T00:36:17.363Z,6.10
2017-11-25T00:38:45.805Z,6.10
2017-11-25T00:41:14.307Z,6.10
2017-11-25T00:43:42.630Z,6.10
2017-11-25T00:46:10.913Z,6.00
2017-11-25T00:48:39.224Z,6.10
2017-11-25T00:51:07.556Z,6.10
2017-11-25T00:53:36.589Z,6.10
2017-11-25T00:56:04.887Z,6.10
2017-11-25T00:58:34.085Z,6.10
2017-11-25T01:01:02.692Z,6.10
2017-11-25T01:03:31.100Z,6.20
2017-11-25T01:05:59.370Z,6.20
2017-11-25T01:08:27.601Z,6.10
2017-11-25T01:11:05.884Z,6.10
2017-11-25T01:13:35.346Z,6.10
2017-11-25T01:16:03.640Z,6.10
2017-11-25T01:18:31.963Z,6.00
2017-11-25T01:21:00.211Z,5.90
2017-11-25T01:23:28.458Z,5.90
2017-11-25T01:25:56.791Z,6.00
2017-11-25T01:28:25.151Z,5.90
2017-11-25T01:30:53.438Z,5.90
2017-11-25T01:33:21.719Z,5.90
2017-11-25T01:35:50.009Z,5.90
2017-11-25T01:38:18.233Z,5.90
2017-11-25T01:40:46.563Z,6.00
2017-11-25T01:43:14.820Z,6.00
2017-11-25T01:45:43.131Z,6.00
2017-11-25T01:48:11.355Z,6.00
2017-11-25T01:50:39.672Z,6.00
2017-11-25T01:53:07.916Z,6.10
2017-11-25T01:55:36.165Z,6.10
2017-11-25T01:58:04.464Z,6.20
2017-11-25T02:00:32.706Z,6.20
2017-11-25T02:03:01.031Z,6.20
2017-11-25T02:05:29.650Z,6.10
2017-11-25T02:07:57.894Z,6.20
2017-11-25T02:10:26.201Z,6.20
2017-11-25T02:12:54.439Z,6.10
2017-11-25T02:15:22.756Z,6.10
2017-11-25T02:17:51.807Z,6.10
2017-11-25T02:20:20.063Z,6.10
2017-11-25T02:22:48.306Z,6.10
2017-11-25T02:25:17.349Z,6.10
2017-11-25T02:27:45.593Z,6.10
2017-11-25T02:30:14.642Z,6.10
2017-11-25T02:32:42.912Z,6.10
2017-11-25T02:35:11.223Z,6.20
2017-11-25T02:37:39.436Z,6.20
2017-11-25T02:40:07.726Z,6.30
2017-11-25T02:42:35.987Z,6.20
2017-11-25T02:45:04.553Z,6.30
2017-11-25T02:47:33.606Z,6.10
2017-11-25T02:50:01.932Z,6.10
2017-11-25T02:52:30.145Z,6.00
2017-11-25T02:54:59.595Z,5.80
2017-11-25T02:57:27.836Z,5.70
2017-11-25T02:59:56.102Z,5.60
2017-11-25T03:02:24.380Z,5.70
2017-11-25T03:04:52.665Z,5.80
2017-11-25T03:07:20.932Z,5.80
2017-11-25T03:09:50.052Z,5.80
2017-11-25T03:12:18.306Z,5.80
2017-11-25T03:14:46.574Z,5.80
2017-11-25T03:17:14.832Z,5.80
2017-11-25T03:19:43.866Z,5.80
2017-11-25T03:22:12.184Z,5.80
2017-11-25T03:24:40.407Z,5.80
2017-11-25T03:27:08.716Z,5.80
2017-11-25T03:29:36.974Z,5.70
2017-11-25T03:32:05.209Z,5.60
2017-11-25T03:34:33.478Z,5.60
2017-11-25T03:37:02.497Z,5.70
2017-11-25T03:39:32.115Z,5.80
2017-11-25T03:42:00.453Z,5.80
2017-11-25T03:44:28.686Z,5.80
2017-11-25T03:46:57.728Z,5.80
2017-11-25T03:49:25.967Z,5.80
2017-11-25T03:51:54.233Z,5.90
2017-11-25T03:54:22.556Z,5.90
2017-11-25T03:56:50.816Z,5.70
2017-11-25T03:59:19.113Z,5.70
2017-11-25T04:01:47.351Z,5.70
2017-11-25T04:04:15.598Z,5.80
2017-11-25T04:06:43.887Z,5.70
2017-11-25T04:09:12.130Z,5.70
2017-11-25T04:11:41.132Z,5.70
2017-11-25T04:14:10.164Z,5.70
2017-11-25T04:16:38.421Z,5.70
2017-11-25T04:19:06.687Z,5.80
2017-11-25T04:21:35.351Z,5.60
2017-11-25T04:24:04.410Z,5.70
2017-11-25T04:26:33.297Z,5.70
2017-11-25T04:29:01.546Z,5.70
2017-11-25T04:31:29.815Z,5.60
2017-11-25T04:33:58.177Z,5.70
2017-11-25T04:36:26.417Z,5.70
2017-11-25T04:38:54.674Z,5.70
2017-11-25T04:41:22.939Z,5.70
2017-11-25T04:43:51.198Z,5.70
2017-11-25T04:46:20.212Z,5.70
2017-11-25T04:48:49.234Z,5.70
2017-11-25T04:51:17.484Z,5.70
2017-11-25T04:53:45.734Z,5.60
2017-11-25T04:56:14.023Z,5.60
2017-11-25T04:58:43.054Z,5.60
2017-11-25T05:01:11.296Z,5.60
2017-11-25T05:03:39.545Z,5.80
2017-11-25T05:06:07.875Z,5.80
2017-11-25T05:08:36.150Z,5.80
2017-11-25T05:11:04.414Z,5.80
2017-11-25T05:13:32.688Z,5.80
2017-11-25T05:16:01.709Z,5.70
2017-11-25T05:18:29.985Z,5.70
2017-11-25T05:20:58.215Z,5.70
2017-11-25T05:23:26.512Z,5.70
2017-11-25T05:25:54.722Z,5.70
2017-11-25T05:28:23.006Z,5.70
2017-11-25T05:30:51.625Z,5.70
2017-11-25T05:33:19.855Z,5.80
2017-11-25T05:35:48.125Z,5.70
2017-11-25T05:38:16.394Z,5.70
2017-11-25T05:40:45.411Z,5.70
2017-11-25T05:43:13.647Z,5.60
2017-11-25T05:45:42.728Z,5.70
2017-11-25T05:48:11.803Z,5.60
2017-11-25T05:50:40.055Z,5.60
2017-11-25T05:53:08.321Z,5.60
2017-11-25T05:55:36.632Z,5.60
2017-11-25T05:58:04.893Z,5.50
2017-11-25T06:00:33.137Z,5.40
2017-11-25T06:03:02.197Z,5.30
2017-11-25T06:05:30.443Z,5.30
2017-11-25T06:07:59.575Z,5.40
2017-11-25T06:10:27.776Z,5.40
2017-11-25T06:12:56.860Z,5.40
2017-11-25T06:15:25.901Z,5.40
2017-11-25T06:17:54.921Z,5.40
2017-11-25T06:20:23.201Z,5.30
2017-11-25T06:22:51.462Z,5.50
2017-11-25T06:25:19.772Z,5.40
2017-11-25T06:27:47.976Z,5.40
2017-11-25T06:30:16.240Z,5.50
2017-11-25T06:32:45.244Z,5.60
2017-11-25T06:35:13.596Z,5.60
2017-11-25T06:37:41.844Z,5.60
2017-11-25T06:40:10.135Z,5.70
2017-11-25T06:42:38.488Z,5.70
2017-11-25T06:45:06.715Z,5.60
2017-11-25T06:47:35.769Z,5.60
2017-11-25T06:50:04.080Z,5.60
2017-11-25T06:52:33.348Z,5.60
2017-11-25T06:55:01.621Z,5.60
2017-11-25T06:57:29.940Z,5.60
2017-11-25T06:59:59.014Z,5.50
2017-11-25T07:02:28.208Z,5.40
2017-11-25T07:04:56.511Z,5.40
2017-11-25T07:07:25.585Z,5.50
2017-11-25T07:09:53.806Z,5.50
2017-11-25T07:12:22.852Z,5.60
2017-11-25T07:14:51.130Z,5.50
2017-11-25T07:17:19.371Z,5.60
2017-11-25T07:19:47.636Z,5.60
2017-11-25T07:22:15.905Z,5.60
2017-11-25T07:24:45.011Z,5.60
2017-11-25T07:27:14.020Z,5.50
2017-11-25T07:29:42.273Z,5.60
2017-11-25T07:32:10.588Z,5.50
2017-11-25T07:34:38.825Z,5.50
2017-11-25T07:37:07.861Z,5.50
2017-11-25T07:39:36.166Z,5.50
2017-11-25T07:42:04.393Z,5.50
2017-11-25T07:44:33.458Z,5.50
2017-11-25T07:47:01.712Z,5.50
2017-11-25T07:49:29.954Z,5.50
2017-11-25T07:51:58.235Z,5.50
2017-11-25T07:54:26.508Z,5.40
2017-11-25T07:56:54.804Z,5.50
2017-11-25T07:59:23.072Z,5.40
2017-11-25T08:01:51.371Z,5.50
2017-11-25T08:04:19.664Z,5.50
2017-11-25T08:06:47.964Z,5.50
2017-11-25T08:09:16.214Z,5.40
2017-11-25T08:11:44.517Z,5.40
2017-11-25T08:14:12.732Z,5.50
2017-11-25T08:16:40.994Z,5.40
2017-11-25T08:19:09.266Z,5.40
2017-11-25T08:21:37.559Z,5.50
2017-11-25T08:24:05.873Z,5.50
2017-11-25T08:26:34.141Z,5.40
2017-11-25T08:29:02.429Z,5.30
2017-11-25T08:31:30.696Z,5.30
2017-11-25T08:33:58.960Z,5.30
2017-11-25T08:36:27.225Z,5.30
2017-11-25T08:38:55.484Z,5.40
2017-11-25T08:41:23.844Z,5.30
2017-11-25T08:43:52.721Z,5.20
2017-11-25T08:46:20.985Z,5.10
2017-11-25T08:48:49.257Z,5.10
2017-11-25T08:51:17.521Z,5.20
2017-11-25T08:53:45.913Z,5.20
2017-11-25T08:56:14.185Z,5.30
2017-11-25T08:58:42.520Z,5.20
2017-11-25T09:01:11.927Z,5.00
2017-11-25T09:03:40.985Z,5.00
2017-11-25T09:06:09.314Z,5.00
2017-11-25T09:08:37.612Z,5.00
2017-11-25T09:11:05.924Z,5.00
2017-11-25T09:13:34.184Z,4.90
2017-11-25T09:16:02.874Z,5.00
2017-11-25T09:18:31.152Z,5.00
2017-11-25T09:21:00.367Z,5.00
2017-11-25T09:23:28.629Z,5.00
2017-11-25T09:25:56.968Z,5.10
2017-11-25T09:28:25.246Z,5.10
2017-11-25T09:30:54.306Z,5.20
2017-11-25T09:33:22.563Z,5.20
2017-11-25T09:35:50.961Z,5.20
2017-11-25T09:38:19.276Z,5.30
2017-11-25T09:40:47.621Z,5.30
2017-11-25T09:43:15.899Z,5.30
2017-11-25T09:45:44.234Z,5.40
2017-11-25T09:48:12.523Z,5.40
2017-11-25T09:50:40.836Z,5.50
2017-11-25T09:53:09.248Z,5.50
2017-11-25T09:55:37.521Z,5.40
2017-11-25T09:58:05.829Z,5.30
2017-11-25T10:00:34.125Z,5.30
2017-11-25T10:03:02.406Z,5.40
2017-11-25T10:05:30.723Z,5.40
2017-11-25T10:07:59.759Z,5.40
2017-11-25T10:10:28.382Z,5.40
2017-11-25T10:12:56.599Z,5.40
2017-11-25T10:15:24.877Z,5.40
2017-11-25T10:17:54.057Z,5.40
2017-11-25T10:20:22.354Z,5.40
2017-11-25T10:22:51.428Z,5.20
2017-11-25T10:25:21.886Z,5.20
2017-11-25T10:27:50.183Z,5.30
2017-11-25T10:30:18.763Z,5.20
2017-11-25T10:32:47.092Z,5.20
2017-11-25T10:35:15.400Z,5.30
2017-11-25T10:37:44.413Z,5.40
2017-11-25T10:40:13.826Z,5.30
2017-11-25T10:42:43.758Z,5.10
2017-11-25T10:45:12.053Z,5.10
2017-11-25T10:47:40.431Z,5.10
2017-11-25T10:50:08.722Z,4.90
2017-11-25T10:52:37.903Z,5.30
2017-11-25T10:55:07.007Z,5.20
2017-11-25T10:57:35.295Z,5.20
2017-11-25T11:00:03.613Z,5.30
2017-11-25T11:02:31.905Z,5.30
2017-11-25T11:05:00.176Z,5.20
2017-11-25T11:07:28.417Z,5.30
2017-11-25T11:09:56.720Z,5.40
2017-11-25T11:12:25.375Z,5.20
2017-11-25T11:14:55.073Z,5.20
2017-11-25T11:17:25.671Z,5.20
2017-11-25T11:19:54.232Z,5.20
2017-11-25T11:22:23.384Z,5.10
2017-11-25T11:24:52.029Z,5.00
2017-11-25T11:27:21.538Z,4.80
2017-11-25T11:29:52.448Z,4.80
2017-11-25T11:32:25.108Z,4.70
2017-11-25T11:34:55.011Z,4.80
2017-11-25T11:37:24.214Z,4.80
2017-11-25T11:39:52.808Z,4.80
2017-11-25T11:42:21.584Z,4.70
2017-11-25T11:44:50.164Z,4.70
2017-11-25T11:47:20.447Z,4.60
2017-11-25T11:49:49.162Z,4.60
2017-11-25T11:52:17.778Z,4.70
2017-11-25T11:54:46.289Z,4.80
2017-11-25T11:57:14.809Z,4.90
2017-11-25T11:59:43.114Z,4.90
2017-11-25T12:02:11.827Z,5.00
2017-11-25T12:04:41.103Z,5.10
2017-11-25T12:07:10.602Z,5.30
2017-11-25T12:09:40.552Z,5.30
2017-11-25T12:12:10.827Z,5.40
2017-11-25T12:14:39.181Z,5.40
2017-11-25T12:17:08.116Z,5.50
2017-11-25T12:19:36.596Z,5.70
2017-11-25T12:22:06.494Z,5.70
2017-11-25T12:24:35.779Z,5.70
2017-11-25T12:27:04.377Z,5.60
2017-11-25T12:29:32.865Z,5.60
2017-11-25T12:32:01.272Z,5.60
2017-11-25T12:34:29.670Z,5.70
2017-11-25T12:36:58.218Z,5.70
2017-11-25T12:39:27.133Z,5.70
2017-11-25T12:41:56.511Z,5.90
2017-11-25T12:44:25.114Z,5.80
2017-11-25T12:46:53.523Z,5.80
2017-11-25T12:49:22.944Z,5.70
2017-11-25T12:51:52.126Z,5.70
2017-11-25T12:54:21.248Z,5.80
2017-11-25T12:56:49.991Z,5.80
2017-11-25T12:59:19.519Z,5.80
2017-11-25T13:01:48.663Z,5.90
2017-11-25T13:04:17.482Z,5.90
2017-11-25T13:06:45.787Z,5.90
2017-11-25T13:09:14.831Z,6.00
2017-11-25T13:11:43.904Z,5.90
2017-11-25T13:14:13.033Z,6.10
2017-11-25T13:16:41.355Z,6.20
2017-11-25T13:19:10.385Z,6.30
2017-11-25T13:21:39.564Z,6.30
2017-11-25T13:24:07.879Z,6.40
2017-11-25T13:26:36.274Z,6.40
2017-11-25T13:29:04.549Z,6.50
2017-11-25T13:31:32.801Z,6.50
2017-11-25T13:34:01.163Z,6.50
2017-11-25T13:36:29.439Z,6.50
2017-11-25T13:38:57.783Z,6.60
2017-11-25T13:41:28.304Z,6.50
2017-11-25T13:43:58.111Z,6.50
2017-11-25T13:46:27.206Z,6.40
2017-11-25T13:48:56.404Z,6.40
2017-11-25T13:51:24.988Z,6.30
2017-11-25T13:53:53.725Z,6.40
2017-11-25T13:56:22.167Z,6.30
2017-11-25T13:58:50.662Z,6.30
2017-11-25T14:01:19.752Z,6.10
2017-11-25T14:03:48.090Z,6.10
2017-11-25T14:06:16.732Z,6.20
2017-11-25T14:08:45.181Z,6.10
2017-11-25T14:11:14.365Z,6.20
2017-11-25T14:13:43.314Z,6.20
2017-11-25T14:16:12.369Z,6.10
2017-11-25T14:18:40.957Z,6.20
2017-11-25T14:21:09.338Z,6.20
2017-11-25T14:23:38.447Z,6.20
2017-11-25T14:26:07.516Z,6.00
2017-11-25T14:28:35.800Z,6.00
2017-11-25T14:31:04.083Z,6.00
2017-11-25T14:33:32.338Z,6.00
2017-11-25T14:36:03.216Z,5.90
2017-11-25T14:38:32.381Z,5.90
2017-11-25T14:41:00.681Z,5.90
2017-11-25T14:43:28.935Z,6.00
2017-11-25T14:45:57.296Z,6.00
2017-11-25T14:48:25.633Z,6.00
2017-11-25T14:50:55.400Z,6.00
2017-11-25T14:53:23.756Z,6.00
2017-11-25T14:55:52.021Z,6.00
2017-11-25T14:58:21.092Z,5.90
2017-11-25T15:00:50.197Z,5.90
2017-11-25T15:03:19.316Z,5.90
2017-11-25T15:05:47.611Z,5.90
2017-11-25T15:08:15.906Z,5.90
2017-11-25T15:10:44.213Z,5.90
2017-11-25T15:13:13.259Z,5.90
2017-11-25T15:15:41.582Z,5.80
2017-11-25T15:18:09.898Z,5.80
2017-11-25T15:20:38.213Z,5.60
2017-11-25T15:23:06.617Z,5.60
2017-11-25T15:25:35.711Z,5.50
2017-11-25T15:28:04.780Z,5.50
2017-11-25T15:30:33.033Z,5.30
2017-11-25T15:33:02.616Z,5.30
2017-11-25T15:35:33.018Z,5.30
2017-11-25T15:38:01.503Z,5.30
2017-11-25T15:40:29.752Z,5.30
2017-11-25T15:42:58.079Z,5.30
2017-11-25T15:45:27.150Z,5.40
2017-11-25T15:47:55.412Z,5.40
2017-11-25T15:50:23.799Z,5.30
2017-11-25T15:52:52.499Z,5.40
2017-11-25T15:55:20.793Z,5.40
2017-11-25T15:57:49.873Z,5.50
2017-11-25T16:00:18.204Z,5.50
2017-11-25T16:02:47.483Z,5.50
2017-11-25T16:05:15.915Z,5.50
2017-11-25T16:07:44.470Z,5.60
2017-11-25T16:10:12.845Z,5.50
2017-11-25T16:12:41.122Z,5.50
2017-11-25T16:15:09.438Z,5.30
2017-11-25T16:17:37.855Z,5.20
2017-11-25T16:20:07.197Z,5.20
2017-11-25T16:22:35.602Z,5.20
2017-11-25T16:25:03.901Z,5.20
2017-11-25T16:27:33.070Z,5.20
2017-11-25T16:30:01.462Z,5.20
2017-11-25T16:32:29.729Z,5.10
2017-11-25T16:34:58.041Z,5.10
2017-11-25T16:37:26.382Z,5.10
2017-11-25T16:39:54.690Z,5.20
2017-11-25T16:42:23.012Z,5.20
2017-11-25T16:44:51.448Z,5.20
2017-11-25T16:47:20.600Z,5.10
2017-11-25T16:49:48.945Z,5.10
2017-11-25T16:52:17.973Z,5.00
2017-11-25T16:54:46.284Z,5.00
2017-11-25T16:57:14.850Z,5.00
2017-11-25T16:59:43.155Z,5.00
2017-11-25T17:02:12.155Z,5.00
2017-11-25T17:04:41.216Z,4.90
2017-11-25T17:07:10.448Z,4.90
2017-11-25T17:09:39.135Z,4.90
2017-11-25T17:12:07.380Z,4.80
2017-11-25T17:14:36.808Z,4.80
2017-11-25T17:17:06.242Z,4.90
2017-11-25T17:19:34.596Z,4.90
2017-11-25T17:22:02.943Z,4.90
2017-11-25T17:24:32.452Z,4.90
2017-11-25T17:27:00.704Z,5.00
2017-11-25T17:29:28.991Z,4.90
2017-11-25T17:31:57.263Z,5.00
2017-11-25T17:34:25.705Z,4.90
2017-11-25T17:36:54.814Z,4.90
2017-11-25T17:39:24.867Z,4.90
2017-11-25T17:41:53.172Z,4.90
2017-11-25T17:44:21.469Z,5.00
2017-11-25T17:46:49.871Z,5.00
2017-11-25T17:49:18.951Z,5.00
2017-11-25T17:51:47.229Z,5.00
2017-11-25T17:54:15.486Z,5.10
2017-11-25T17:56:43.734Z,5.10
2017-11-25T17:59:12.052Z,5.10
2017-11-25T18:01:40.320Z,5.10
2017-11-25T18:04:08.713Z,5.20
2017-11-25T18:06:37.427Z,5.00
2017-11-25T18:09:05.813Z,5.00
2017-11-25T18:11:34.878Z,4.90
2017-11-25T18:14:03.157Z,4.90
2017-11-25T18:16:31.545Z,4.80
2017-11-25T18:18:59.806Z,4.80
2017-11-25T18:21:28.872Z,4.90
2017-11-25T18:23:57.307Z,4.90
2017-11-25T18:26:26.557Z,4.90
2017-11-25T18:28:54.821Z,4.90
2017-11-25T18:31:23.204Z,4.90
2017-11-25T18:33:51.525Z,4.90
2017-11-25T18:36:19.800Z,4.90
2017-11-25T18:38:49.652Z,5.00
2017-11-25T18:41:19.489Z,5.00
2017-11-25T18:43:48.125Z,5.00
2017-11-25T18:46:16.739Z,5.00
2017-11-25T18:48:46.113Z,5.10
2017-11-25T18:51:14.470Z,5.10
2017-11-25T18:53:43.511Z,5.10
2017-11-25T18:56:12.640Z,5.10
2017-11-25T18:58:41.161Z,5.10
2017-11-25T19:01:10.030Z,5.00
2017-11-25T19:03:38.409Z,5.00
2017-11-25T19:06:07.504Z,4.90
2017-11-25T19:08:36.962Z,4.90
2017-11-25T19:11:06.372Z,4.90
2017-11-25T19:13:34.705Z,4.90
2017-11-25T19:16:03.881Z,4.90
2017-11-25T19:18:33.088Z,4.80
2017-11-25T19:21:01.586Z,4.80
2017-11-25T19:23:30.281Z,4.90
2017-11-25T19:25:59.461Z,4.70
2017-11-25T19:28:27.851Z,4.70
2017-11-25T19:30:56.249Z,4.70
2017-11-25T19:33:24.501Z,4.60
2017-11-25T19:35:52.954Z,4.60
2017-11-25T19:38:21.351Z,4.50
2017-11-25T19:40:49.772Z,4.30
2017-11-25T19:43:18.348Z,4.60
2017-11-25T19:45:46.733Z,4.70
2017-11-25T19:48:14.992Z,4.70
2017-11-25T19:50:43.668Z,4.70
2017-11-25T19:53:13.642Z,4.60
2017-11-25T19:55:42.824Z,4.30
2017-11-25T19:58:12.323Z,4.30
2017-11-25T20:00:41.610Z,4.30
2017-11-25T20:03:12.863Z,4.30
2017-11-25T20:05:41.991Z,4.30
2017-11-25T20:08:10.336Z,4.30
2017-11-25T20:10:39.444Z,4.30
2017-11-25T20:13:08.643Z,4.40
2017-11-25T20:15:38.046Z,4.40
2017-11-25T20:18:06.901Z,4.40
2017-11-25T20:20:35.254Z,4.40
2017-11-25T20:23:04.948Z,4.50
2017-11-25T20:25:34.710Z,4.50
2017-11-25T20:28:03.219Z,4.60
2017-11-25T20:30:32.777Z,4.60
2017-11-25T20:33:01.160Z,4.60
2017-11-25T20:35:30.385Z,4.60
2017-11-25T20:37:59.507Z,4.70
2017-11-25T20:40:29.109Z,4.60
2017-11-25T20:42:58.018Z,4.60
2017-11-25T20:45:26.333Z,4.50
2017-11-25T20:47:56.305Z,4.40
2017-11-25T20:50:25.867Z,4.40
2017-11-25T20:52:55.315Z,4.20
2017-11-25T20:55:24.507Z,4.30
2017-11-25T20:57:54.057Z,4.20
2017-11-25T21:00:24.329Z,4.00
2017-11-25T21:02:53.062Z,4.00
2017-11-25T21:05:22.622Z,3.90
2017-11-25T21:07:51.263Z,3.90
2017-11-25T21:10:22.161Z,3.90
2017-11-25T21:12:51.481Z,3.90
2017-11-25T21:15:19.889Z,3.90
2017-11-25T21:17:48.944Z,3.80
2017-11-25T21:20:17.749Z,3.70
2017-11-25T21:22:46.794Z,3.60
2017-11-25T21:25:15.217Z,3.60
2017-11-25T21:27:44.032Z,3.60
2017-11-25T21:30:14.014Z,3.70
2017-11-25T21:32:43.964Z,3.70
2017-11-25T21:35:13.292Z,3.70
2017-11-25T21:37:41.942Z,3.70
2017-11-25T21:40:11.117Z,3.60
2017-11-25T21:42:40.089Z,3.60
2017-11-25T21:45:08.595Z,3.60
2017-11-25T21:47:37.911Z,3.60
2017-11-25T21:50:06.689Z,3.50
2017-11-25T21:52:37.097Z,3.60
2017-11-25T21:55:05.487Z,3.60
2017-11-25T21:57:33.978Z,3.60
2017-11-25T22:00:02.986Z,3.60
2017-11-25T22:02:31.438Z,3.70
2017-11-25T22:05:00.149Z,3.70
2017-11-25T22:07:29.322Z,3.80
2017-11-25T22:09:59.052Z,3.80
2017-11-25T22:12:27.341Z,3.90
2017-11-25T22:14:56.542Z,3.80
2017-11-25T22:17:26.426Z,3.90
2017-11-25T22:19:56.172Z,3.90
2017-11-25T22:22:25.255Z,3.80
2017-11-25T22:24:54.328Z,3.80
2017-11-25T22:27:23.245Z,3.80
2017-11-25T22:29:52.441Z,3.70
2017-11-25T22:32:21.390Z,3.70
2017-11-25T22:34:49.757Z,3.70
2017-11-25T22:37:18.397Z,3.80
2017-11-25T22:39:47.501Z,3.90
2017-11-25T22:42:16.019Z,3.90
2017-11-25T22:44:44.361Z,3.90
2017-11-25T22:47:13.495Z,3.90
2017-11-25T22:49:41.786Z,3.80
2017-11-25T22:52:10.137Z,3.90
2017-11-25T22:54:39.180Z,3.90
2017-11-25T22:57:07.490Z,3.90
2017-11-25T22:59:36.549Z,4.00
2017-11-25T23:02:04.811Z,4.00
2017-11-25T23:04:33.144Z,4.10
2017-11-25T23:07:01.421Z,4.00
2017-11-25T23:09:30.203Z,3.90
2017-11-25T23:11:58.482Z,3.90
2017-11-25T23:14:26.740Z,3.90
2017-11-25T23:16:55.980Z,4.00
2017-11-25T23:19:24.338Z,3.90
2017-11-25T23:21:52.707Z,3.90
2017-11-25T23:24:22.697Z,4.00
2017-11-25T23:26:50.950Z,4.00
2017-11-25T23:29:19.289Z,4.00
2017-11-25T23:31:47.536Z,3.90
2017-11-25T23:34:15.852Z,3.90
2017-11-25T23:36:44.249Z,3.90
2017-11-25T23:39:12.603Z,4.00
2017-11-25T23:41:40.809Z,4.00
2017-11-25T23:44:09.073Z,4.00
2017-11-25T23:46:38.949Z,4.00
2017-11-25T23:49:07.221Z,3.90
2017-11-25T23:51:35.497Z,3.90
2017-11-25T23:54:03.752Z,4.00
2017-11-25T23:56:32.021Z,3.90
2017-11-25T23:59:00.283Z,3.90
